sensor_id;sensor_type;location;lat;lon;timestamp;pressure;altitude;pressure_sealevel;temperature;humidity
69796;BME280;57073;45.650;9.612;2023-04-22T00:02:43;99117.66;;;12.21;56.35
69796;BME280;57073;45.650;9.612;2023-04-22T00:07:44;99115.06;;;12.09;56.89
69796;BME280;57073;45.650;9.612;2023-04-22T00:12:45;99113.88;;;12.00;57.60
69796;BME280;57073;45.650;9.612;2023-04-22T00:17:45;99116.25;;;11.97;57.10
69796;BME280;57073;45.650;9.612;2023-04-22T00:22:46;99115.38;;;11.91;57.33
69796;BME280;57073;45.650;9.612;2023-04-22T00:27:46;99118.94;;;11.74;57.83
69796;BME280;57073;45.650;9.612;2023-04-22T00:32:46;99125.06;;;11.70;57.80
69796;BME280;57073;45.650;9.612;2023-04-22T00:37:48;99109.63;;;11.65;58.03
69796;BME280;57073;45.650;9.612;2023-04-22T00:42:49;99112.41;;;11.70;57.23
69796;BME280;57073;45.650;9.612;2023-04-22T00:47:51;99114.00;;;11.71;57.23
69796;BME280;57073;45.650;9.612;2023-04-22T00:52:51;99111.25;;;11.66;56.38
69796;BME280;57073;45.650;9.612;2023-04-22T00:57:53;99111.06;;;11.56;57.03
69796;BME280;57073;45.650;9.612;2023-04-22T01:02:54;99108.13;;;11.41;57.09
69796;BME280;57073;45.650;9.612;2023-04-22T01:07:56;99108.13;;;11.41;56.74
69796;BME280;57073;45.650;9.612;2023-04-22T01:12:56;99109.03;;;11.29;55.83
69796;BME280;57073;45.650;9.612;2023-04-22T01:17:58;99107.75;;;11.15;56.89
69796;BME280;57073;45.650;9.612;2023-04-22T01:23:01;99103.56;;;11.24;57.06
69796;BME280;57073;45.650;9.612;2023-04-22T01:28:03;99096.53;;;11.23;56.78
69796;BME280;57073;45.650;9.612;2023-04-22T01:33:04;99102.66;;;11.18;56.81
69796;BME280;57073;45.650;9.612;2023-04-22T01:38:06;99092.91;;;11.17;56.77
69796;BME280;57073;45.650;9.612;2023-04-22T01:43:07;99104.78;;;11.16;56.66
69796;BME280;57073;45.650;9.612;2023-04-22T01:48:07;99106.81;;;11.26;57.32
69796;BME280;57073;45.650;9.612;2023-04-22T01:53:08;99102.09;;;11.16;57.62
69796;BME280;57073;45.650;9.612;2023-04-22T01:58:08;99093.25;;;11.21;56.99
69796;BME280;57073;45.650;9.612;2023-04-22T02:03:08;99096.69;;;11.16;57.27
69796;BME280;57073;45.650;9.612;2023-04-22T02:08:09;99081.09;;;11.02;58.31
69796;BME280;57073;45.650;9.612;2023-04-22T02:13:09;99089.25;;;11.07;58.56
69796;BME280;57073;45.650;9.612;2023-04-22T02:18:10;99101.34;;;11.04;58.45
69796;BME280;57073;45.650;9.612;2023-04-22T02:23:10;99097.75;;;10.98;59.10
69796;BME280;57073;45.650;9.612;2023-04-22T02:28:11;99095.53;;;10.95;58.00
69796;BME280;57073;45.650;9.612;2023-04-22T02:33:11;99100.19;;;10.83;59.58
69796;BME280;57073;45.650;9.612;2023-04-22T02:38:12;99102.97;;;10.88;58.70
69796;BME280;57073;45.650;9.612;2023-04-22T02:43:12;99100.78;;;10.85;58.32
69796;BME280;57073;45.650;9.612;2023-04-22T02:48:13;99102.31;;;10.81;57.84
69796;BME280;57073;45.650;9.612;2023-04-22T02:53:13;99106.06;;;10.80;57.49
69796;BME280;57073;45.650;9.612;2023-04-22T02:58:13;99104.19;;;10.80;56.74
69796;BME280;57073;45.650;9.612;2023-04-22T03:03:14;99114.66;;;10.77;56.12
69796;BME280;57073;45.650;9.612;2023-04-22T03:08:14;99111.19;;;10.65;56.77
69796;BME280;57073;45.650;9.612;2023-04-22T03:13:14;99115.06;;;10.69;56.63
69796;BME280;57073;45.650;9.612;2023-04-22T03:18:15;99114.94;;;10.64;55.85
69796;BME280;57073;45.650;9.612;2023-04-22T03:23:15;99108.31;;;10.54;56.19
69796;BME280;57073;45.650;9.612;2023-04-22T03:28:15;99111.25;;;10.53;55.92
69796;BME280;57073;45.650;9.612;2023-04-22T03:33:17;99110.41;;;10.52;56.00
69796;BME280;57073;45.650;9.612;2023-04-22T03:38:17;99106.91;;;10.52;56.50
69796;BME280;57073;45.650;9.612;2023-04-22T03:43:18;99098.47;;;10.48;56.59
69796;BME280;57073;45.650;9.612;2023-04-22T03:48:18;99102.09;;;10.54;56.35
69796;BME280;57073;45.650;9.612;2023-04-22T03:53:18;99103.00;;;10.59;56.33
69796;BME280;57073;45.650;9.612;2023-04-22T03:58:19;99108.81;;;10.68;56.95
69796;BME280;57073;45.650;9.612;2023-04-22T04:03:19;99106.75;;;10.58;57.15
69796;BME280;57073;45.650;9.612;2023-04-22T04:08:19;99094.56;;;10.56;57.42
69796;BME280;57073;45.650;9.612;2023-04-22T04:13:20;99101.00;;;10.38;58.65
69796;BME280;57073;45.650;9.612;2023-04-22T04:18:20;99093.25;;;10.30;59.54
69796;BME280;57073;45.650;9.612;2023-04-22T04:23:21;99094.63;;;10.44;58.01
69796;BME280;57073;45.650;9.612;2023-04-22T04:28:21;99092.75;;;10.45;57.46
69796;BME280;57073;45.650;9.612;2023-04-22T04:33:21;99098.88;;;10.40;57.40
69796;BME280;57073;45.650;9.612;2023-04-22T04:38:22;99098.00;;;10.51;57.51
69796;BME280;57073;45.650;9.612;2023-04-22T04:43:24;99106.00;;;10.46;57.29
69796;BME280;57073;45.650;9.612;2023-04-22T04:48:25;99093.56;;;10.45;57.11
69796;BME280;57073;45.650;9.612;2023-04-22T04:53:26;99101.63;;;10.45;57.06
69796;BME280;57073;45.650;9.612;2023-04-22T04:58:26;99096.50;;;10.44;57.45
69796;BME280;57073;45.650;9.612;2023-04-22T05:03:26;99103.09;;;10.36;58.28
69796;BME280;57073;45.650;9.612;2023-04-22T05:08:27;99118.84;;;10.56;57.47
69796;BME280;57073;45.650;9.612;2023-04-22T05:13:27;99110.16;;;10.54;57.36
69796;BME280;57073;45.650;9.612;2023-04-22T05:18:28;99124.19;;;10.68;56.18
69796;BME280;57073;45.650;9.612;2023-04-22T05:23:28;99141.03;;;10.75;56.76
69796;BME280;57073;45.650;9.612;2023-04-22T05:28:29;99135.50;;;10.82;56.41
69796;BME280;57073;45.650;9.612;2023-04-22T05:33:30;99149.16;;;10.92;55.77
69796;BME280;57073;45.650;9.612;2023-04-22T05:38:30;99150.06;;;10.97;55.63
69796;BME280;57073;45.650;9.612;2023-04-22T05:43:30;99161.31;;;11.23;54.90
69796;BME280;57073;45.650;9.612;2023-04-22T05:48:31;99152.72;;;11.26;55.21
69796;BME280;57073;45.650;9.612;2023-04-22T05:53:31;99158.03;;;11.72;54.36
69796;BME280;57073;45.650;9.612;2023-04-22T05:58:31;99144.22;;;12.29;53.52
69796;BME280;57073;45.650;9.612;2023-04-22T06:03:32;99148.31;;;12.76;51.99
69796;BME280;57073;45.650;9.612;2023-04-22T06:08:32;99155.09;;;13.06;50.99
69796;BME280;57073;45.650;9.612;2023-04-22T06:13:33;99152.91;;;13.03;51.35
69796;BME280;57073;45.650;9.612;2023-04-22T06:18:33;99153.19;;;13.34;50.30
69796;BME280;57073;45.650;9.612;2023-04-22T06:23:35;99160.00;;;13.79;49.60
69796;BME280;57073;45.650;9.612;2023-04-22T06:28:35;99165.72;;;14.25;49.25
69796;BME280;57073;45.650;9.612;2023-04-22T06:33:36;99157.16;;;14.54;48.53
69796;BME280;57073;45.650;9.612;2023-04-22T06:38:36;99162.06;;;14.67;48.02
69796;BME280;57073;45.650;9.612;2023-04-22T06:43:36;99158.91;;;14.96;47.04
69796;BME280;57073;45.650;9.612;2023-04-22T06:48:37;99152.41;;;15.12;45.69
69796;BME280;57073;45.650;9.612;2023-04-22T06:53:38;99157.28;;;15.31;46.18
69796;BME280;57073;45.650;9.612;2023-04-22T06:58:38;99163.28;;;15.48;45.61
69796;BME280;57073;45.650;9.612;2023-04-22T07:03:38;99166.53;;;15.61;45.76
69796;BME280;57073;45.650;9.612;2023-04-22T07:08:39;99162.44;;;15.68;45.39
69796;BME280;57073;45.650;9.612;2023-04-22T07:13:40;99158.38;;;15.66;45.17
69796;BME280;57073;45.650;9.612;2023-04-22T07:18:40;99160.53;;;15.79;45.87
69796;BME280;57073;45.650;9.612;2023-04-22T07:23:40;99171.97;;;15.66;44.29
69796;BME280;57073;45.650;9.612;2023-04-22T07:28:40;99171.13;;;15.75;46.05
69796;BME280;57073;45.650;9.612;2023-04-22T07:33:41;99159.19;;;15.82;45.23
69796;BME280;57073;45.650;9.612;2023-04-22T07:38:41;99169.00;;;15.83;46.09
69796;BME280;57073;45.650;9.612;2023-04-22T07:43:41;99172.22;;;15.95;45.33
69796;BME280;57073;45.650;9.612;2023-04-22T07:48:42;99160.50;;;16.10;44.79
69796;BME280;57073;45.650;9.612;2023-04-22T07:53:42;99170.25;;;16.16;44.23
69796;BME280;57073;45.650;9.612;2023-04-22T07:58:42;99161.53;;;16.29;43.96
69796;BME280;57073;45.650;9.612;2023-04-22T08:03:43;99167.47;;;16.37;42.81
69796;BME280;57073;45.650;9.612;2023-04-22T08:08:43;99173.69;;;16.47;43.56
69796;BME280;57073;45.650;9.612;2023-04-22T08:13:43;99166.50;;;16.77;43.43
69796;BME280;57073;45.650;9.612;2023-04-22T08:18:44;99169.31;;;17.06;43.28
69796;BME280;57073;45.650;9.612;2023-04-22T08:23:44;99168.72;;;17.49;44.41
69796;BME280;57073;45.650;9.612;2023-04-22T08:28:45;99165.56;;;17.71;42.92
69796;BME280;57073;45.650;9.612;2023-04-22T08:33:46;99170.47;;;17.98;43.75
69796;BME280;57073;45.650;9.612;2023-04-22T08:38:47;99168.31;;;17.95;41.77
69796;BME280;57073;45.650;9.612;2023-04-22T08:43:48;99166.66;;;17.99;43.75
69796;BME280;57073;45.650;9.612;2023-04-22T08:48:49;99160.59;;;18.02;42.67
69796;BME280;57073;45.650;9.612;2023-04-22T08:53:49;99161.34;;;18.32;42.67
69796;BME280;57073;45.650;9.612;2023-04-22T08:58:50;99157.88;;;18.51;41.56
69796;BME280;57073;45.650;9.612;2023-04-22T09:03:52;99156.88;;;18.66;40.98
69796;BME280;57073;45.650;9.612;2023-04-22T09:08:54;99149.56;;;18.37;38.12
69796;BME280;57073;45.650;9.612;2023-04-22T09:13:55;99147.94;;;18.36;40.50
69796;BME280;57073;45.650;9.612;2023-04-22T09:18:55;99154.81;;;18.57;40.17
69796;BME280;57073;45.650;9.612;2023-04-22T09:23:55;99157.53;;;18.09;39.70
69796;BME280;57073;45.650;9.612;2023-04-22T09:28:57;99149.81;;;17.92;39.21
69796;BME280;57073;45.650;9.612;2023-04-22T09:33:59;99153.63;;;18.15;39.77
69796;BME280;57073;45.650;9.612;2023-04-22T09:39:05;99135.38;;;17.86;39.69
69796;BME280;57073;45.650;9.612;2023-04-22T09:44:14;99133.31;;;18.02;40.42
69796;BME280;57073;45.650;9.612;2023-04-22T09:49:15;99134.91;;;18.09;39.29
69796;BME280;57073;45.650;9.612;2023-04-22T09:54:16;99128.50;;;18.37;40.93
69796;BME280;57073;45.650;9.612;2023-04-22T09:59:20;99122.78;;;18.63;40.38
69796;BME280;57073;45.650;9.612;2023-04-22T10:04:21;99129.19;;;18.72;39.23
69796;BME280;57073;45.650;9.612;2023-04-22T10:09:24;99120.84;;;18.82;40.04
69796;BME280;57073;45.650;9.612;2023-04-22T10:14:24;99108.53;;;18.85;39.35
69796;BME280;57073;45.650;9.612;2023-04-22T10:19:25;99116.31;;;18.92;39.68
69796;BME280;57073;45.650;9.612;2023-04-22T10:24:27;99117.44;;;18.91;39.60
69796;BME280;57073;45.650;9.612;2023-04-22T10:29:38;99095.38;;;18.87;39.91
69796;BME280;57073;45.650;9.612;2023-04-22T10:34:39;99097.97;;;18.97;39.92
69796;BME280;57073;45.650;9.612;2023-04-22T10:39:40;99104.06;;;19.08;39.65
69796;BME280;57073;45.650;9.612;2023-04-22T10:44:51;99093.81;;;19.00;39.33
69796;BME280;57073;45.650;9.612;2023-04-22T10:55:08;99093.78;;;19.19;38.74
69796;BME280;57073;45.650;9.612;2023-04-22T11:00:51;99090.56;;;18.98;38.61
69796;BME280;57073;45.650;9.612;2023-04-22T11:05:44;99079.00;;;19.20;39.17
69796;BME280;57073;45.650;9.612;2023-04-22T11:10:47;99075.38;;;18.73;38.01
69796;BME280;57073;45.650;9.612;2023-04-22T11:15:50;99076.28;;;18.44;39.06
69796;BME280;57073;45.650;9.612;2023-04-22T11:20:51;99082.22;;;18.89;40.31
69796;BME280;57073;45.650;9.612;2023-04-22T11:26:03;99077.19;;;18.96;40.74
69796;BME280;57073;45.650;9.612;2023-04-22T11:31:06;99074.19;;;18.79;41.62
69796;BME280;57073;45.650;9.612;2023-04-22T11:36:10;99071.81;;;18.91;41.84
69796;BME280;57073;45.650;9.612;2023-04-22T11:41:11;99063.91;;;18.90;41.30
69796;BME280;57073;45.650;9.612;2023-04-22T11:46:11;99058.88;;;18.97;41.17
69796;BME280;57073;45.650;9.612;2023-04-22T11:51:11;99059.50;;;19.08;40.52
69796;BME280;57073;45.650;9.612;2023-04-22T11:56:12;99054.31;;;18.92;40.41
69796;BME280;57073;45.650;9.612;2023-04-22T12:01:12;99037.19;;;18.87;40.63
69796;BME280;57073;45.650;9.612;2023-04-22T12:06:15;99037.16;;;19.06;40.82
69796;BME280;57073;45.650;9.612;2023-04-22T12:11:15;99034.53;;;19.14;40.66
69796;BME280;57073;45.650;9.612;2023-04-22T12:16:19;99035.31;;;19.01;40.16
69796;BME280;57073;45.650;9.612;2023-04-22T12:21:24;99031.22;;;18.85;39.67
69796;BME280;57073;45.650;9.612;2023-04-22T12:26:27;99024.25;;;18.92;40.16
69796;BME280;57073;45.650;9.612;2023-04-22T12:31:27;99032.09;;;18.80;39.77
69796;BME280;57073;45.650;9.612;2023-04-22T12:36:28;99026.94;;;18.78;39.67
69796;BME280;57073;45.650;9.612;2023-04-22T12:41:28;99009.97;;;18.81;39.06
69796;BME280;57073;45.650;9.612;2023-04-22T12:46:28;99015.94;;;18.83;38.73
69796;BME280;57073;45.650;9.612;2023-04-22T12:51:29;99004.53;;;18.95;38.67
69796;BME280;57073;45.650;9.612;2023-04-22T12:56:30;98998.22;;;19.14;39.44
69796;BME280;57073;45.650;9.612;2023-04-22T13:01:30;99006.13;;;19.15;39.23
69796;BME280;57073;45.650;9.612;2023-04-22T13:06:31;98990.50;;;19.16;38.15
69796;BME280;57073;45.650;9.612;2023-04-22T13:11:31;98987.28;;;19.14;38.54
69796;BME280;57073;45.650;9.612;2023-04-22T13:16:32;98980.88;;;19.18;37.58
69796;BME280;57073;45.650;9.612;2023-04-22T13:21:32;98974.72;;;19.13;38.23
69796;BME280;57073;45.650;9.612;2023-04-22T13:26:32;98975.22;;;19.15;38.38
69796;BME280;57073;45.650;9.612;2023-04-22T13:31:33;98958.16;;;19.37;38.82
69796;BME280;57073;45.650;9.612;2023-04-22T13:36:33;98958.16;;;19.51;37.89
69796;BME280;57073;45.650;9.612;2023-04-22T13:41:34;98943.59;;;19.55;37.99
69796;BME280;57073;45.650;9.612;2023-04-22T13:46:35;98942.78;;;19.41;37.22
69796;BME280;57073;45.650;9.612;2023-04-22T13:51:36;98935.09;;;19.43;38.00
69796;BME280;57073;45.650;9.612;2023-04-22T13:56:36;98932.66;;;19.42;36.56
69796;BME280;57073;45.650;9.612;2023-04-22T14:01:37;98926.47;;;19.36;36.97
69796;BME280;57073;45.650;9.612;2023-04-22T14:06:37;98931.34;;;19.39;37.11
69796;BME280;57073;45.650;9.612;2023-04-22T14:11:38;98929.41;;;19.39;37.03
69796;BME280;57073;45.650;9.612;2023-04-22T14:16:38;98925.03;;;19.52;37.14
69796;BME280;57073;45.650;9.612;2023-04-22T14:21:39;98924.84;;;19.49;37.22
69796;BME280;57073;45.650;9.612;2023-04-22T14:26:39;98922.72;;;19.46;36.64
69796;BME280;57073;45.650;9.612;2023-04-22T14:31:40;98919.28;;;19.26;36.99
69796;BME280;57073;45.650;9.612;2023-04-22T14:36:40;98913.59;;;19.36;36.30
69796;BME280;57073;45.650;9.612;2023-04-22T14:41:40;98912.09;;;19.30;35.89
69796;BME280;57073;45.650;9.612;2023-04-22T14:46:41;98910.66;;;19.33;36.40
69796;BME280;57073;45.650;9.612;2023-04-22T14:51:41;98906.69;;;19.25;35.94
69796;BME280;57073;45.650;9.612;2023-04-22T14:56:41;98906.75;;;19.39;35.94
69796;BME280;57073;45.650;9.612;2023-04-22T15:01:42;98911.16;;;19.21;36.08
69796;BME280;57073;45.650;9.612;2023-04-22T15:06:42;98905.00;;;19.29;35.57
69796;BME280;57073;45.650;9.612;2023-04-22T15:11:42;98896.47;;;19.17;35.83
69796;BME280;57073;45.650;9.612;2023-04-22T15:16:43;98902.03;;;19.26;36.06
69796;BME280;57073;45.650;9.612;2023-04-22T15:21:43;98892.94;;;19.16;36.06
69796;BME280;57073;45.650;9.612;2023-04-22T15:26:43;98891.13;;;19.12;35.74
69796;BME280;57073;45.650;9.612;2023-04-22T15:31:44;98897.56;;;19.02;36.70
69796;BME280;57073;45.650;9.612;2023-04-22T15:36:45;98900.00;;;19.04;36.61
69796;BME280;57073;45.650;9.612;2023-04-22T15:41:45;98895.84;;;19.06;37.12
69796;BME280;57073;45.650;9.612;2023-04-22T15:46:46;98891.41;;;19.10;37.43
69796;BME280;57073;45.650;9.612;2023-04-22T15:51:46;98898.00;;;19.09;37.63
69796;BME280;57073;45.650;9.612;2023-04-22T15:56:46;98898.19;;;19.13;37.49
69796;BME280;57073;45.650;9.612;2023-04-22T16:01:47;98895.56;;;19.08;36.90
69796;BME280;57073;45.650;9.612;2023-04-22T16:06:48;98894.44;;;18.95;37.27
69796;BME280;57073;45.650;9.612;2023-04-22T16:11:48;98902.84;;;18.85;38.00
69796;BME280;57073;45.650;9.612;2023-04-22T16:16:49;98894.94;;;18.83;37.51
69796;BME280;57073;45.650;9.612;2023-04-22T16:21:49;98901.28;;;18.78;38.66
69796;BME280;57073;45.650;9.612;2023-04-22T16:26:49;98898.84;;;18.77;38.35
69796;BME280;57073;45.650;9.612;2023-04-22T16:31:50;98906.47;;;18.80;38.15
69796;BME280;57073;45.650;9.612;2023-04-22T16:36:51;98907.56;;;18.79;38.61
69796;BME280;57073;45.650;9.612;2023-04-22T16:41:52;98907.56;;;18.79;38.34
69796;BME280;57073;45.650;9.612;2023-04-22T16:46:53;98910.41;;;18.88;38.83
69796;BME280;57073;45.650;9.612;2023-04-22T16:51:53;98907.06;;;18.77;38.19
69796;BME280;57073;45.650;9.612;2023-04-22T16:56:53;98899.91;;;18.81;38.73
69796;BME280;57073;45.650;9.612;2023-04-22T17:01:54;98904.63;;;18.75;38.15
69796;BME280;57073;45.650;9.612;2023-04-22T17:06:54;98907.75;;;18.69;38.62
69796;BME280;57073;45.650;9.612;2023-04-22T17:11:55;98903.69;;;18.66;38.42
69796;BME280;57073;45.650;9.612;2023-04-22T17:16:56;98893.69;;;18.61;38.67
69796;BME280;57073;45.650;9.612;2023-04-22T17:21:56;98900.31;;;18.55;39.13
69796;BME280;57073;45.650;9.612;2023-04-22T17:26:56;98883.72;;;18.52;38.70
69796;BME280;57073;45.650;9.612;2023-04-22T17:31:56;98909.72;;;18.49;39.20
69796;BME280;57073;45.650;9.612;2023-04-22T17:36:57;98915.72;;;18.32;39.73
69796;BME280;57073;45.650;9.612;2023-04-22T17:41:57;98910.03;;;18.10;38.56
69796;BME280;57073;45.650;9.612;2023-04-22T17:46:58;98919.78;;;17.78;38.29
69796;BME280;57073;45.650;9.612;2023-04-22T17:51:58;98914.09;;;17.74;39.10
69796;BME280;57073;45.650;9.612;2023-04-22T17:56:58;98909.69;;;17.78;38.72
69796;BME280;57073;45.650;9.612;2023-04-22T18:01:59;98927.00;;;17.68;38.85
69796;BME280;57073;45.650;9.612;2023-04-22T18:06:59;98924.38;;;17.58;38.81
69796;BME280;57073;45.650;9.612;2023-04-22T18:12:00;98927.50;;;17.46;38.33
69796;BME280;57073;45.650;9.612;2023-04-22T18:17:00;98927.56;;;17.17;39.33
69796;BME280;57073;45.650;9.612;2023-04-22T18:22:02;98934.13;;;17.16;40.04
69796;BME280;57073;45.650;9.612;2023-04-22T18:27:02;98936.09;;;17.10;40.65
69796;BME280;57073;45.650;9.612;2023-04-22T18:32:03;98939.69;;;17.06;41.31
69796;BME280;57073;45.650;9.612;2023-04-22T18:37:03;98949.91;;;16.90;41.32
69796;BME280;57073;45.650;9.612;2023-04-22T18:42:03;98950.09;;;16.99;42.17
69796;BME280;57073;45.650;9.612;2023-04-22T18:47:04;98956.41;;;16.94;41.59
69796;BME280;57073;45.650;9.612;2023-04-22T18:52:04;98967.41;;;16.84;43.38
69796;BME280;57073;45.650;9.612;2023-04-22T18:57:04;98974.69;;;16.88;42.51
69796;BME280;57073;45.650;9.612;2023-04-22T19:02:05;98971.50;;;16.81;43.54
69796;BME280;57073;45.650;9.612;2023-04-22T19:07:06;98969.94;;;16.75;43.52
69796;BME280;57073;45.650;9.612;2023-04-22T19:12:06;98972.38;;;16.77;44.15
69796;BME280;57073;45.650;9.612;2023-04-22T19:17:13;98969.69;;;16.66;45.08
69796;BME280;57073;45.650;9.612;2023-04-22T19:22:13;98977.97;;;16.56;45.07
69796;BME280;57073;45.650;9.612;2023-04-22T19:27:15;98975.63;;;16.39;46.52
69796;BME280;57073;45.650;9.612;2023-04-22T19:32:16;98986.34;;;16.25;46.68
69796;BME280;57073;45.650;9.612;2023-04-22T19:37:16;98987.41;;;16.29;46.06
69796;BME280;57073;45.650;9.612;2023-04-22T19:42:17;98986.28;;;16.30;45.67
69796;BME280;57073;45.650;9.612;2023-04-22T19:47:20;98986.63;;;16.24;45.89
69796;BME280;57073;45.650;9.612;2023-04-22T19:52:20;98981.03;;;16.00;47.74
69796;BME280;57073;45.650;9.612;2023-04-22T19:57:21;98983.19;;;16.03;47.02
69796;BME280;57073;45.650;9.612;2023-04-22T20:02:22;98981.00;;;16.05;46.42
69796;BME280;57073;45.650;9.612;2023-04-22T20:07:22;98982.66;;;16.01;45.96
69796;BME280;57073;45.650;9.612;2023-04-22T20:12:25;98989.69;;;16.07;46.04
69796;BME280;57073;45.650;9.612;2023-04-22T20:17:27;98983.16;;;16.08;45.13
69796;BME280;57073;45.650;9.612;2023-04-22T20:22:28;98982.16;;;15.93;46.70
69796;BME280;57073;45.650;9.612;2023-04-22T20:27:29;98987.34;;;15.90;47.45
69796;BME280;57073;45.650;9.612;2023-04-22T20:32:30;98978.13;;;15.81;47.24
69796;BME280;57073;45.650;9.612;2023-04-22T20:37:31;98987.63;;;15.83;47.80
69796;BME280;57073;45.650;9.612;2023-04-22T20:42:32;98985.47;;;15.75;48.45
69796;BME280;57073;45.650;9.612;2023-04-22T20:47:32;98982.50;;;15.71;47.70
69796;BME280;57073;45.650;9.612;2023-04-22T20:52:33;98986.31;;;15.65;48.48
69796;BME280;57073;45.650;9.612;2023-04-22T20:57:33;98986.13;;;15.51;49.04
69796;BME280;57073;45.650;9.612;2023-04-22T21:02:34;98979.91;;;15.30;50.59
69796;BME280;57073;45.650;9.612;2023-04-22T21:07:37;98979.13;;;15.30;50.99
69796;BME280;57073;45.650;9.612;2023-04-22T21:12:38;98966.66;;;15.13;51.56
69796;BME280;57073;45.650;9.612;2023-04-22T21:17:47;98979.13;;;15.14;51.80
69796;BME280;57073;45.650;9.612;2023-04-22T21:22:50;98977.00;;;15.01;52.25
69796;BME280;57073;45.650;9.612;2023-04-22T21:27:52;98975.94;;;14.97;52.22
69796;BME280;57073;45.650;9.612;2023-04-22T21:32:53;98973.22;;;14.87;52.27
69796;BME280;57073;45.650;9.612;2023-04-22T21:37:53;98978.34;;;14.78;52.80
69796;BME280;57073;45.650;9.612;2023-04-22T21:42:54;98978.34;;;14.78;53.06
69796;BME280;57073;45.650;9.612;2023-04-22T21:47:54;98981.31;;;14.76;53.38
69796;BME280;57073;45.650;9.612;2023-04-22T21:52:55;98980.50;;;14.71;53.94
69796;BME280;57073;45.650;9.612;2023-04-22T21:57:56;98978.38;;;14.88;52.03
69796;BME280;57073;45.650;9.612;2023-04-22T22:02:56;98973.72;;;14.83;51.80
69796;BME280;57073;45.650;9.612;2023-04-22T22:07:56;98970.72;;;14.80;51.92
69796;BME280;57073;45.650;9.612;2023-04-22T22:12:57;98976.44;;;14.83;52.29
69796;BME280;57073;45.650;9.612;2023-04-22T22:17:57;98977.00;;;14.91;51.72
69796;BME280;57073;45.650;9.612;2023-04-22T22:22:58;98963.97;;;14.98;50.99
69796;BME280;57073;45.650;9.612;2023-04-22T22:27:58;98979.19;;;14.89;51.19
69796;BME280;57073;45.650;9.612;2023-04-22T22:32:59;98971.31;;;14.92;50.50
69796;BME280;57073;45.650;9.612;2023-04-22T22:37:59;98959.91;;;14.90;51.13
69796;BME280;57073;45.650;9.612;2023-04-22T22:43:00;98965.34;;;14.90;50.75
69796;BME280;57073;45.650;9.612;2023-04-22T22:48:00;98967.50;;;14.88;50.71
69796;BME280;57073;45.650;9.612;2023-04-22T22:53:00;98970.75;;;15.00;50.18
69796;BME280;57073;45.650;9.612;2023-04-22T22:58:01;98962.63;;;14.95;50.93
69796;BME280;57073;45.650;9.612;2023-04-22T23:03:02;98961.25;;;14.93;50.63
69796;BME280;57073;45.650;9.612;2023-04-22T23:08:02;98962.34;;;14.92;51.06
69796;BME280;57073;45.650;9.612;2023-04-22T23:13:03;98964.22;;;14.96;50.91
69796;BME280;57073;45.650;9.612;2023-04-22T23:18:03;98967.75;;;14.81;52.30
69796;BME280;57073;45.650;9.612;2023-04-22T23:23:04;98957.47;;;14.78;52.68
69796;BME280;57073;45.650;9.612;2023-04-22T23:28:05;98961.78;;;14.74;53.16
69796;BME280;57073;45.650;9.612;2023-04-22T23:33:06;98953.38;;;14.71;53.04
69796;BME280;57073;45.650;9.612;2023-04-22T23:38:08;98942.78;;;14.74;52.04
69796;BME280;57073;45.650;9.612;2023-04-22T23:43:10;98940.06;;;14.69;52.33
69796;BME280;57073;45.650;9.612;2023-04-22T23:48:10;98937.09;;;14.50;52.76
69796;BME280;57073;45.650;9.612;2023-04-22T23:53:11;98936.84;;;14.47;52.59
69796;BME280;57073;45.650;9.612;2023-04-22T23:58:11;98921.66;;;14.40;52.53
